sensor_id;sensor_type;location;lat;lon;timestamp;P1;durP1;ratioP1;P2;durP2;ratioP2
11877;SDS011;5998;42.676;23.268;2022-09-09T00:00:45;11.27;;;9.37;;
11877;SDS011;5998;42.676;23.268;2022-09-09T00:03:16;10.43;;;9.53;;
11877;SDS011;5998;42.676;23.268;2022-09-09T00:05:48;14.07;;;9.80;;
11877;SDS011;5998;42.676;23.268;2022-09-09T00:08:24;10.43;;;9.43;;
11877;SDS011;5998;42.676;23.268;2022-09-09T00:11:00;10.43;;;9.33;;
11877;SDS011;5998;42.676;23.268;2022-09-09T00:13:33;12.30;;;9.77;;
11877;SDS011;5998;42.676;23.268;2022-09-09T00:16:04;11.00;;;9.83;;
11877;SDS011;5998;42.676;23.268;2022-09-09T00:18:39;11.30;;;9.90;;
11877;SDS011;5998;42.676;23.268;2022-09-09T00:21:13;11.00;;;9.90;;
11877;SDS011;5998;42.676;23.268;2022-09-09T00:23:44;11.00;;;9.97;;
11877;SDS011;5998;42.676;23.268;2022-09-09T00:26:18;10.10;;;9.23;;
11877;SDS011;5998;42.676;23.268;2022-09-09T00:28:53;10.37;;;9.40;;
11877;SDS011;5998;42.676;23.268;2022-09-09T00:31:25;10.90;;;9.80;;
11877;SDS011;5998;42.676;23.268;2022-09-09T00:33:55;10.17;;;9.27;;
11877;SDS011;5998;42.676;23.268;2022-09-09T00:36:29;10.87;;;9.77;;
11877;SDS011;5998;42.676;23.268;2022-09-09T00:39:01;10.53;;;9.60;;
11877;SDS011;5998;42.676;23.268;2022-09-09T00:41:31;10.30;;;9.33;;
11877;SDS011;5998;42.676;23.268;2022-09-09T00:44:11;10.90;;;9.90;;
11877;SDS011;5998;42.676;23.268;2022-09-09T00:49:40;11.13;;;9.63;;
11877;SDS011;5998;42.676;23.268;2022-09-09T00:52:20;10.50;;;9.40;;
11877;SDS011;5998;42.676;23.268;2022-09-09T00:54:58;9.93;;;8.93;;
11877;SDS011;5998;42.676;23.268;2022-09-09T00:57:34;11.67;;;10.60;;
11877;SDS011;5998;42.676;23.268;2022-09-09T01:03:05;11.00;;;9.63;;
11877;SDS011;5998;42.676;23.268;2022-09-09T01:05:43;10.60;;;9.60;;
11877;SDS011;5998;42.676;23.268;2022-09-09T01:08:15;10.60;;;9.70;;
11877;SDS011;5998;42.676;23.268;2022-09-09T01:10:56;12.43;;;9.70;;
11877;SDS011;5998;42.676;23.268;2022-09-09T01:13:26;11.53;;;9.70;;
11877;SDS011;5998;42.676;23.268;2022-09-09T01:15:55;10.97;;;9.97;;
11877;SDS011;5998;42.676;23.268;2022-09-09T01:18:26;11.53;;;10.53;;
11877;SDS011;5998;42.676;23.268;2022-09-09T01:20:57;11.43;;;10.23;;
11877;SDS011;5998;42.676;23.268;2022-09-09T01:23:37;12.03;;;10.23;;
11877;SDS011;5998;42.676;23.268;2022-09-09T01:26:14;11.63;;;10.43;;
11877;SDS011;5998;42.676;23.268;2022-09-09T01:28:46;11.53;;;10.07;;
11877;SDS011;5998;42.676;23.268;2022-09-09T01:31:15;12.73;;;10.37;;
11877;SDS011;5998;42.676;23.268;2022-09-09T01:33:45;12.53;;;10.70;;
11877;SDS011;5998;42.676;23.268;2022-09-09T01:36:13;14.07;;;11.03;;
11877;SDS011;5998;42.676;23.268;2022-09-09T01:38:47;11.30;;;10.20;;
11877;SDS011;5998;42.676;23.268;2022-09-09T01:41:15;13.53;;;10.03;;
11877;SDS011;5998;42.676;23.268;2022-09-09T01:43:42;11.30;;;10.20;;
11877;SDS011;5998;42.676;23.268;2022-09-09T01:46:11;12.03;;;10.17;;
11877;SDS011;5998;42.676;23.268;2022-09-09T01:48:38;12.30;;;10.40;;
11877;SDS011;5998;42.676;23.268;2022-09-09T01:51:07;13.50;;;10.77;;
11877;SDS011;5998;42.676;23.268;2022-09-09T01:53:35;11.87;;;10.73;;
11877;SDS011;5998;42.676;23.268;2022-09-09T01:56:04;12.27;;;11.07;;
11877;SDS011;5998;42.676;23.268;2022-09-09T01:58:43;11.83;;;10.63;;
11877;SDS011;5998;42.676;23.268;2022-09-09T02:01:25;13.67;;;10.53;;
11877;SDS011;5998;42.676;23.268;2022-09-09T02:04:01;11.73;;;9.97;;
11877;SDS011;5998;42.676;23.268;2022-09-09T02:06:36;16.07;;;10.87;;
11877;SDS011;5998;42.676;23.268;2022-09-09T02:09:06;11.50;;;10.30;;
11877;SDS011;5998;42.676;23.268;2022-09-09T02:11:36;12.17;;;10.73;;
11877;SDS011;5998;42.676;23.268;2022-09-09T02:14:06;14.67;;;10.37;;
11877;SDS011;5998;42.676;23.268;2022-09-09T02:16:37;11.50;;;10.30;;
11877;SDS011;5998;42.676;23.268;2022-09-09T02:19:09;11.17;;;10.17;;
11877;SDS011;5998;42.676;23.268;2022-09-09T02:21:39;11.47;;;10.37;;
11877;SDS011;5998;42.676;23.268;2022-09-09T02:24:09;11.27;;;10.27;;
11877;SDS011;5998;42.676;23.268;2022-09-09T02:26:41;13.47;;;11.20;;
11877;SDS011;5998;42.676;23.268;2022-09-09T02:29:13;14.90;;;11.17;;
11877;SDS011;5998;42.676;23.268;2022-09-09T02:31:42;18.27;;;11.63;;
11877;SDS011;5998;42.676;23.268;2022-09-09T02:34:12;14.23;;;10.93;;
11877;SDS011;5998;42.676;23.268;2022-09-09T02:36:42;12.87;;;11.20;;
11877;SDS011;5998;42.676;23.268;2022-09-09T02:39:11;15.70;;;10.87;;
11877;SDS011;5998;42.676;23.268;2022-09-09T02:41:39;11.67;;;10.57;;
11877;SDS011;5998;42.676;23.268;2022-09-09T02:44:09;11.83;;;10.73;;
11877;SDS011;5998;42.676;23.268;2022-09-09T02:46:43;11.40;;;10.30;;
11877;SDS011;5998;42.676;23.268;2022-09-09T02:49:22;11.53;;;10.40;;
11877;SDS011;5998;42.676;23.268;2022-09-09T02:51:57;11.20;;;10.20;;
11877;SDS011;5998;42.676;23.268;2022-09-09T02:54:29;13.23;;;10.87;;
11877;SDS011;5998;42.676;23.268;2022-09-09T02:56:59;10.87;;;9.87;;
11877;SDS011;5998;42.676;23.268;2022-09-09T02:59:30;11.60;;;10.43;;
11877;SDS011;5998;42.676;23.268;2022-09-09T03:01:58;12.27;;;10.97;;
11877;SDS011;5998;42.676;23.268;2022-09-09T03:04:26;13.40;;;11.23;;
11877;SDS011;5998;42.676;23.268;2022-09-09T03:06:52;17.77;;;11.93;;
11877;SDS011;5998;42.676;23.268;2022-09-09T03:09:19;14.83;;;12.00;;
11877;SDS011;5998;42.676;23.268;2022-09-09T03:11:46;13.30;;;11.77;;
11877;SDS011;5998;42.676;23.268;2022-09-09T03:14:12;14.50;;;12.30;;
11877;SDS011;5998;42.676;23.268;2022-09-09T03:16:39;17.40;;;11.50;;
11877;SDS011;5998;42.676;23.268;2022-09-09T03:19:08;15.23;;;11.27;;
11877;SDS011;5998;42.676;23.268;2022-09-09T03:21:35;16.27;;;11.47;;
11877;SDS011;5998;42.676;23.268;2022-09-09T03:24:02;14.50;;;11.70;;
11877;SDS011;5998;42.676;23.268;2022-09-09T03:26:29;15.90;;;11.30;;
11877;SDS011;5998;42.676;23.268;2022-09-09T03:28:56;15.87;;;12.03;;
11877;SDS011;5998;42.676;23.268;2022-09-09T03:31:25;15.30;;;11.23;;
11877;SDS011;5998;42.676;23.268;2022-09-09T03:33:55;13.20;;;11.30;;
11877;SDS011;5998;42.676;23.268;2022-09-09T03:36:24;13.00;;;11.00;;
11877;SDS011;5998;42.676;23.268;2022-09-09T03:38:53;13.10;;;11.77;;
11877;SDS011;5998;42.676;23.268;2022-09-09T03:41:20;15.20;;;12.57;;
11877;SDS011;5998;42.676;23.268;2022-09-09T03:43:49;12.47;;;11.27;;
11877;SDS011;5998;42.676;23.268;2022-09-09T03:46:16;12.40;;;11.20;;
11877;SDS011;5998;42.676;23.268;2022-09-09T03:48:42;15.13;;;11.27;;
11877;SDS011;5998;42.676;23.268;2022-09-09T03:51:09;18.83;;;12.80;;
11877;SDS011;5998;42.676;23.268;2022-09-09T03:53:37;13.93;;;12.40;;
11877;SDS011;5998;42.676;23.268;2022-09-09T03:56:05;15.97;;;12.67;;
11877;SDS011;5998;42.676;23.268;2022-09-09T03:58:33;19.97;;;12.07;;
11877;SDS011;5998;42.676;23.268;2022-09-09T04:01:01;13.87;;;11.80;;
11877;SDS011;5998;42.676;23.268;2022-09-09T04:03:30;14.87;;;11.93;;
11877;SDS011;5998;42.676;23.268;2022-09-09T04:05:58;14.07;;;12.00;;
11877;SDS011;5998;42.676;23.268;2022-09-09T04:08:27;16.63;;;12.47;;
11877;SDS011;5998;42.676;23.268;2022-09-09T04:10:56;17.50;;;11.80;;
11877;SDS011;5998;42.676;23.268;2022-09-09T04:13:23;15.03;;;12.57;;
11877;SDS011;5998;42.676;23.268;2022-09-09T04:15:51;12.43;;;11.10;;
11877;SDS011;5998;42.676;23.268;2022-09-09T04:18:19;23.87;;;12.57;;
11877;SDS011;5998;42.676;23.268;2022-09-09T04:20:46;17.23;;;12.87;;
11877;SDS011;5998;42.676;23.268;2022-09-09T04:23:13;17.00;;;12.80;;
11877;SDS011;5998;42.676;23.268;2022-09-09T04:25:43;19.53;;;12.23;;
11877;SDS011;5998;42.676;23.268;2022-09-09T04:28:12;17.67;;;11.70;;
11877;SDS011;5998;42.676;23.268;2022-09-09T04:30:39;27.10;;;13.83;;
11877;SDS011;5998;42.676;23.268;2022-09-09T04:33:06;24.60;;;15.80;;
11877;SDS011;5998;42.676;23.268;2022-09-09T04:35:33;32.40;;;16.03;;
11877;SDS011;5998;42.676;23.268;2022-09-09T04:38:00;24.47;;;14.40;;
11877;SDS011;5998;42.676;23.268;2022-09-09T04:40:28;21.33;;;14.70;;
11877;SDS011;5998;42.676;23.268;2022-09-09T04:42:57;22.70;;;14.70;;
11877;SDS011;5998;42.676;23.268;2022-09-09T04:45:25;27.63;;;17.37;;
11877;SDS011;5998;42.676;23.268;2022-09-09T04:47:52;24.90;;;16.40;;
11877;SDS011;5998;42.676;23.268;2022-09-09T04:50:20;22.77;;;13.53;;
11877;SDS011;5998;42.676;23.268;2022-09-09T04:52:46;16.23;;;14.53;;
11877;SDS011;5998;42.676;23.268;2022-09-09T04:55:13;14.83;;;12.87;;
11877;SDS011;5998;42.676;23.268;2022-09-09T04:57:40;18.40;;;16.47;;
11877;SDS011;5998;42.676;23.268;2022-09-09T05:00:08;20.23;;;15.57;;
11877;SDS011;5998;42.676;23.268;2022-09-09T05:02:38;19.20;;;13.53;;
11877;SDS011;5998;42.676;23.268;2022-09-09T05:05:05;19.43;;;13.00;;
11877;SDS011;5998;42.676;23.268;2022-09-09T05:07:32;19.60;;;13.13;;
11877;SDS011;5998;42.676;23.268;2022-09-09T05:09:59;21.77;;;12.97;;
11877;SDS011;5998;42.676;23.268;2022-09-09T05:12:26;18.03;;;12.47;;
11877;SDS011;5998;42.676;23.268;2022-09-09T05:14:53;13.87;;;12.00;;
11877;SDS011;5998;42.676;23.268;2022-09-09T05:17:20;15.97;;;11.87;;
11877;SDS011;5998;42.676;23.268;2022-09-09T05:19:48;15.57;;;12.23;;
11877;SDS011;5998;42.676;23.268;2022-09-09T05:22:18;14.60;;;11.17;;
11877;SDS011;5998;42.676;23.268;2022-09-09T05:24:46;17.40;;;11.90;;
11877;SDS011;5998;42.676;23.268;2022-09-09T05:27:16;14.03;;;11.97;;
11877;SDS011;5998;42.676;23.268;2022-09-09T05:29:44;15.60;;;12.70;;
11877;SDS011;5998;42.676;23.268;2022-09-09T05:32:11;18.63;;;12.77;;
11877;SDS011;5998;42.676;23.268;2022-09-09T05:34:40;18.00;;;12.67;;
11877;SDS011;5998;42.676;23.268;2022-09-09T05:37:08;14.33;;;12.83;;
11877;SDS011;5998;42.676;23.268;2022-09-09T05:39:35;13.47;;;12.20;;
11877;SDS011;5998;42.676;23.268;2022-09-09T05:42:03;19.63;;;12.63;;
11877;SDS011;5998;42.676;23.268;2022-09-09T05:44:30;14.30;;;12.17;;
11877;SDS011;5998;42.676;23.268;2022-09-09T05:46:57;14.00;;;12.60;;
11877;SDS011;5998;42.676;23.268;2022-09-09T05:49:24;17.47;;;14.50;;
11877;SDS011;5998;42.676;23.268;2022-09-09T05:51:50;14.93;;;13.43;;
11877;SDS011;5998;42.676;23.268;2022-09-09T05:54:19;15.47;;;12.60;;
11877;SDS011;5998;42.676;23.268;2022-09-09T05:56:46;16.73;;;13.53;;
11877;SDS011;5998;42.676;23.268;2022-09-09T05:59:14;15.93;;;12.80;;
11877;SDS011;5998;42.676;23.268;2022-09-09T06:01:41;16.70;;;12.60;;
11877;SDS011;5998;42.676;23.268;2022-09-09T06:04:08;17.13;;;14.13;;
11877;SDS011;5998;42.676;23.268;2022-09-09T06:06:35;22.33;;;14.00;;
11877;SDS011;5998;42.676;23.268;2022-09-09T06:09:05;17.63;;;14.30;;
11877;SDS011;5998;42.676;23.268;2022-09-09T06:11:36;20.03;;;14.90;;
11877;SDS011;5998;42.676;23.268;2022-09-09T06:14:04;20.07;;;14.30;;
11877;SDS011;5998;42.676;23.268;2022-09-09T06:16:31;20.57;;;15.53;;
11877;SDS011;5998;42.676;23.268;2022-09-09T06:18:59;16.10;;;14.40;;
11877;SDS011;5998;42.676;23.268;2022-09-09T06:21:28;17.67;;;13.17;;
11877;SDS011;5998;42.676;23.268;2022-09-09T06:23:58;15.03;;;12.63;;
11877;SDS011;5998;42.676;23.268;2022-09-09T06:26:25;14.87;;;13.17;;
11877;SDS011;5998;42.676;23.268;2022-09-09T06:28:55;17.50;;;13.37;;
11877;SDS011;5998;42.676;23.268;2022-09-09T06:31:23;14.07;;;12.33;;
11877;SDS011;5998;42.676;23.268;2022-09-09T06:33:53;16.27;;;12.10;;
11877;SDS011;5998;42.676;23.268;2022-09-09T06:36:21;15.40;;;12.80;;
11877;SDS011;5998;42.676;23.268;2022-09-09T06:38:49;15.50;;;13.47;;
11877;SDS011;5998;42.676;23.268;2022-09-09T06:41:16;16.77;;;13.93;;
11877;SDS011;5998;42.676;23.268;2022-09-09T06:43:44;18.33;;;13.37;;
11877;SDS011;5998;42.676;23.268;2022-09-09T06:46:14;13.20;;;11.80;;
11877;SDS011;5998;42.676;23.268;2022-09-09T06:48:42;15.33;;;12.63;;
11877;SDS011;5998;42.676;23.268;2022-09-09T06:51:11;15.00;;;12.73;;
11877;SDS011;5998;42.676;23.268;2022-09-09T06:53:40;15.73;;;12.77;;
11877;SDS011;5998;42.676;23.268;2022-09-09T06:56:18;13.30;;;12.00;;
11877;SDS011;5998;42.676;23.268;2022-09-09T06:58:47;14.40;;;12.20;;
11877;SDS011;5998;42.676;23.268;2022-09-09T07:01:16;13.60;;;12.13;;
11877;SDS011;5998;42.676;23.268;2022-09-09T07:03:45;15.93;;;13.30;;
11877;SDS011;5998;42.676;23.268;2022-09-09T07:06:15;19.90;;;12.97;;
11877;SDS011;5998;42.676;23.268;2022-09-09T07:08:47;13.47;;;11.20;;
11877;SDS011;5998;42.676;23.268;2022-09-09T07:11:15;21.33;;;12.57;;
11877;SDS011;5998;42.676;23.268;2022-09-09T07:13:42;13.37;;;11.90;;
11877;SDS011;5998;42.676;23.268;2022-09-09T07:16:10;16.17;;;12.30;;
11877;SDS011;5998;42.676;23.268;2022-09-09T07:18:40;16.80;;;11.70;;
11877;SDS011;5998;42.676;23.268;2022-09-09T07:21:08;13.03;;;11.53;;
11877;SDS011;5998;42.676;23.268;2022-09-09T07:23:37;14.87;;;11.80;;
11877;SDS011;5998;42.676;23.268;2022-09-09T07:26:07;16.10;;;11.23;;
11877;SDS011;5998;42.676;23.268;2022-09-09T07:28:34;12.90;;;11.60;;
11877;SDS011;5998;42.676;23.268;2022-09-09T07:31:01;12.63;;;9.90;;
11877;SDS011;5998;42.676;23.268;2022-09-09T07:33:29;11.57;;;10.50;;
11877;SDS011;5998;42.676;23.268;2022-09-09T07:36:03;12.40;;;11.30;;
11877;SDS011;5998;42.676;23.268;2022-09-09T07:38:32;13.30;;;10.87;;
11877;SDS011;5998;42.676;23.268;2022-09-09T07:41:03;12.67;;;10.87;;
11877;SDS011;5998;42.676;23.268;2022-09-09T07:43:32;12.17;;;10.60;;
11877;SDS011;5998;42.676;23.268;2022-09-09T07:45:59;17.50;;;11.17;;
11877;SDS011;5998;42.676;23.268;2022-09-09T07:48:29;12.60;;;11.30;;
11877;SDS011;5998;42.676;23.268;2022-09-09T07:51:04;13.23;;;11.03;;
11877;SDS011;5998;42.676;23.268;2022-09-09T07:53:34;11.70;;;10.03;;
11877;SDS011;5998;42.676;23.268;2022-09-09T07:56:04;14.70;;;10.70;;
11877;SDS011;5998;42.676;23.268;2022-09-09T07:58:32;12.83;;;10.83;;
11877;SDS011;5998;42.676;23.268;2022-09-09T08:00:59;12.43;;;10.47;;
11877;SDS011;5998;42.676;23.268;2022-09-09T08:03:26;15.17;;;10.47;;
11877;SDS011;5998;42.676;23.268;2022-09-09T08:05:53;12.03;;;10.63;;
11877;SDS011;5998;42.676;23.268;2022-09-09T08:08:28;12.60;;;9.93;;
11877;SDS011;5998;42.676;23.268;2022-09-09T08:11:01;11.07;;;8.93;;
11877;SDS011;5998;42.676;23.268;2022-09-09T08:13:30;13.03;;;9.20;;
11877;SDS011;5998;42.676;23.268;2022-09-09T08:16:03;11.87;;;9.23;;
11877;SDS011;5998;42.676;23.268;2022-09-09T08:18:31;11.47;;;8.60;;
11877;SDS011;5998;42.676;23.268;2022-09-09T08:21:04;11.90;;;9.97;;
11877;SDS011;5998;42.676;23.268;2022-09-09T08:23:33;11.50;;;8.30;;
11877;SDS011;5998;42.676;23.268;2022-09-09T08:26:03;16.73;;;9.80;;
11877;SDS011;5998;42.676;23.268;2022-09-09T08:28:30;11.30;;;9.80;;
11877;SDS011;5998;42.676;23.268;2022-09-09T08:31:04;11.50;;;9.60;;
11877;SDS011;5998;42.676;23.268;2022-09-09T08:33:31;9.63;;;8.63;;
11877;SDS011;5998;42.676;23.268;2022-09-09T08:35:59;10.00;;;8.80;;
11877;SDS011;5998;42.676;23.268;2022-09-09T08:38:25;11.10;;;8.87;;
11877;SDS011;5998;42.676;23.268;2022-09-09T08:40:55;9.90;;;8.90;;
11877;SDS011;5998;42.676;23.268;2022-09-09T08:43:28;19.17;;;8.93;;
11877;SDS011;5998;42.676;23.268;2022-09-09T08:45:58;12.63;;;9.00;;
11877;SDS011;5998;42.676;23.268;2022-09-09T08:48:37;13.70;;;8.00;;
11877;SDS011;5998;42.676;23.268;2022-09-09T08:51:13;13.10;;;8.27;;
11877;SDS011;5998;42.676;23.268;2022-09-09T08:53:40;9.80;;;7.67;;
11877;SDS011;5998;42.676;23.268;2022-09-09T08:56:12;10.00;;;7.63;;
11877;SDS011;5998;42.676;23.268;2022-09-09T08:58:43;12.63;;;7.50;;
11877;SDS011;5998;42.676;23.268;2022-09-09T09:01:19;8.73;;;7.83;;
11877;SDS011;5998;42.676;23.268;2022-09-09T09:03:59;9.83;;;7.87;;
11877;SDS011;5998;42.676;23.268;2022-09-09T09:06:35;8.70;;;7.30;;
11877;SDS011;5998;42.676;23.268;2022-09-09T09:09:12;9.27;;;7.60;;
11877;SDS011;5998;42.676;23.268;2022-09-09T09:11:47;8.63;;;6.85;;
11877;SDS011;5998;42.676;23.268;2022-09-09T09:14:17;7.70;;;6.63;;
11877;SDS011;5998;42.676;23.268;2022-09-09T09:16:48;9.13;;;7.32;;
11877;SDS011;5998;42.676;23.268;2022-09-09T09:19:18;9.48;;;7.55;;
11877;SDS011;5998;42.676;23.268;2022-09-09T09:21:48;8.90;;;6.72;;
11877;SDS011;5998;42.676;23.268;2022-09-09T09:24:20;8.63;;;7.50;;
11877;SDS011;5998;42.676;23.268;2022-09-09T09:26:54;6.88;;;6.25;;
11877;SDS011;5998;42.676;23.268;2022-09-09T09:29:23;11.52;;;7.32;;
11877;SDS011;5998;42.676;23.268;2022-09-09T09:31:52;13.32;;;7.03;;
11877;SDS011;5998;42.676;23.268;2022-09-09T09:34:22;10.80;;;6.90;;
11877;SDS011;5998;42.676;23.268;2022-09-09T09:36:52;9.55;;;6.85;;
11877;SDS011;5998;42.676;23.268;2022-09-09T09:39:24;11.95;;;6.93;;
11877;SDS011;5998;42.676;23.268;2022-09-09T09:41:52;7.93;;;6.38;;
11877;SDS011;5998;42.676;23.268;2022-09-09T09:44:24;10.40;;;6.68;;
11877;SDS011;5998;42.676;23.268;2022-09-09T09:46:53;8.55;;;6.75;;
11877;SDS011;5998;42.676;23.268;2022-09-09T09:49:32;9.88;;;6.95;;
11877;SDS011;5998;42.676;23.268;2022-09-09T09:52:00;7.30;;;5.50;;
11877;SDS011;5998;42.676;23.268;2022-09-09T09:54:27;8.63;;;5.97;;
11877;SDS011;5998;42.676;23.268;2022-09-09T09:56:55;7.90;;;6.55;;
11877;SDS011;5998;42.676;23.268;2022-09-09T09:59:35;10.63;;;6.82;;
11877;SDS011;5998;42.676;23.268;2022-09-09T10:02:17;12.27;;;6.38;;
11877;SDS011;5998;42.676;23.268;2022-09-09T10:04:46;7.10;;;6.40;;
11877;SDS011;5998;42.676;23.268;2022-09-09T10:07:17;9.03;;;6.50;;
11877;SDS011;5998;42.676;23.268;2022-09-09T10:09:44;9.57;;;6.60;;
11877;SDS011;5998;42.676;23.268;2022-09-09T10:12:16;11.50;;;7.00;;
11877;SDS011;5998;42.676;23.268;2022-09-09T10:14:55;12.07;;;7.27;;
11877;SDS011;5998;42.676;23.268;2022-09-09T10:17:34;10.83;;;7.57;;
11877;SDS011;5998;42.676;23.268;2022-09-09T10:20:12;9.40;;;6.80;;
11877;SDS011;5998;42.676;23.268;2022-09-09T10:22:49;10.40;;;7.00;;
11877;SDS011;5998;42.676;23.268;2022-09-09T10:25:20;9.50;;;6.97;;
11877;SDS011;5998;42.676;23.268;2022-09-09T10:28:00;11.07;;;7.30;;
11877;SDS011;5998;42.676;23.268;2022-09-09T10:30:48;12.17;;;7.03;;
11877;SDS011;5998;42.676;23.268;2022-09-09T10:33:28;8.53;;;6.77;;
11877;SDS011;5998;42.676;23.268;2022-09-09T10:36:06;9.60;;;7.13;;
11877;SDS011;5998;42.676;23.268;2022-09-09T10:38:39;11.10;;;7.00;;
11877;SDS011;5998;42.676;23.268;2022-09-09T10:41:13;8.10;;;6.67;;
11877;SDS011;5998;42.676;23.268;2022-09-09T10:46:48;10.67;;;7.70;;
11877;SDS011;5998;42.676;23.268;2022-09-09T10:49:30;11.13;;;7.57;;
11877;SDS011;5998;42.676;23.268;2022-09-09T10:52:15;15.30;;;8.20;;
11877;SDS011;5998;42.676;23.268;2022-09-09T10:54:52;10.93;;;8.37;;
11877;SDS011;5998;42.676;23.268;2022-09-09T10:57:25;8.63;;;7.67;;
11877;SDS011;5998;42.676;23.268;2022-09-09T10:59:57;14.10;;;8.30;;
11877;SDS011;5998;42.676;23.268;2022-09-09T11:02:30;13.93;;;8.13;;
11877;SDS011;5998;42.676;23.268;2022-09-09T11:05:00;10.43;;;7.10;;
11877;SDS011;5998;42.676;23.268;2022-09-09T11:07:33;13.13;;;8.00;;
11877;SDS011;5998;42.676;23.268;2022-09-09T11:10:05;15.37;;;8.17;;
11877;SDS011;5998;42.676;23.268;2022-09-09T11:12:44;12.07;;;7.80;;
11877;SDS011;5998;42.676;23.268;2022-09-09T11:15:17;13.67;;;7.83;;
11877;SDS011;5998;42.676;23.268;2022-09-09T11:17:50;13.90;;;8.10;;
11877;SDS011;5998;42.676;23.268;2022-09-09T11:20:20;13.97;;;8.10;;
11877;SDS011;5998;42.676;23.268;2022-09-09T11:22:48;16.93;;;7.57;;
11877;SDS011;5998;42.676;23.268;2022-09-09T11:25:20;11.97;;;8.13;;
11877;SDS011;5998;42.676;23.268;2022-09-09T11:27:56;12.47;;;7.87;;
11877;SDS011;5998;42.676;23.268;2022-09-09T11:30:33;14.20;;;8.00;;
11877;SDS011;5998;42.676;23.268;2022-09-09T11:39:07;13.10;;;7.47;;
11877;SDS011;5998;42.676;23.268;2022-09-09T11:41:55;13.80;;;7.80;;
11877;SDS011;5998;42.676;23.268;2022-09-09T11:44:32;11.97;;;7.90;;
11877;SDS011;5998;42.676;23.268;2022-09-09T11:46:59;11.87;;;8.00;;
11877;SDS011;5998;42.676;23.268;2022-09-09T11:49:27;13.53;;;7.47;;
11877;SDS011;5998;42.676;23.268;2022-09-09T11:51:57;12.33;;;7.70;;
11877;SDS011;5998;42.676;23.268;2022-09-09T11:54:28;13.13;;;7.93;;
11877;SDS011;5998;42.676;23.268;2022-09-09T11:56:57;13.00;;;7.97;;
11877;SDS011;5998;42.676;23.268;2022-09-09T11:59:25;9.10;;;7.47;;
11877;SDS011;5998;42.676;23.268;2022-09-09T12:01:55;10.50;;;7.83;;
11877;SDS011;5998;42.676;23.268;2022-09-09T12:04:30;14.88;;;7.60;;
11877;SDS011;5998;42.676;23.268;2022-09-09T12:07:04;13.77;;;7.70;;
11877;SDS011;5998;42.676;23.268;2022-09-09T12:09:51;7.40;;;6.60;;
11877;SDS011;5998;42.676;23.268;2022-09-09T12:12:26;11.00;;;7.40;;
11877;SDS011;5998;42.676;23.268;2022-09-09T12:14:56;12.43;;;7.72;;
11877;SDS011;5998;42.676;23.268;2022-09-09T12:17:27;8.35;;;7.10;;
11877;SDS011;5998;42.676;23.268;2022-09-09T12:19:59;9.95;;;7.45;;
11877;SDS011;5998;42.676;23.268;2022-09-09T12:22:34;13.05;;;7.68;;
11877;SDS011;5998;42.676;23.268;2022-09-09T12:25:09;8.05;;;7.18;;
11877;SDS011;5998;42.676;23.268;2022-09-09T12:27:45;12.88;;;6.90;;
11877;SDS011;5998;42.676;23.268;2022-09-09T12:30:27;12.10;;;7.30;;
11877;SDS011;5998;42.676;23.268;2022-09-09T12:33:01;13.25;;;7.20;;
11877;SDS011;5998;42.676;23.268;2022-09-09T12:35:28;13.25;;;6.85;;
11877;SDS011;5998;42.676;23.268;2022-09-09T12:37:57;11.90;;;7.53;;
11877;SDS011;5998;42.676;23.268;2022-09-09T12:40:26;11.85;;;6.03;;
11877;SDS011;5998;42.676;23.268;2022-09-09T12:42:54;16.10;;;6.65;;
11877;SDS011;5998;42.676;23.268;2022-09-09T12:45:22;10.05;;;6.00;;
11877;SDS011;5998;42.676;23.268;2022-09-09T12:47:51;14.48;;;6.85;;
11877;SDS011;5998;42.676;23.268;2022-09-09T12:50:22;10.82;;;6.30;;
11877;SDS011;5998;42.676;23.268;2022-09-09T12:52:52;11.80;;;5.72;;
11877;SDS011;5998;42.676;23.268;2022-09-09T12:55:27;13.88;;;5.88;;
11877;SDS011;5998;42.676;23.268;2022-09-09T12:57:55;10.07;;;5.07;;
11877;SDS011;5998;42.676;23.268;2022-09-09T13:00:24;13.10;;;5.80;;
11877;SDS011;5998;42.676;23.268;2022-09-09T13:02:52;7.57;;;5.47;;
11877;SDS011;5998;42.676;23.268;2022-09-09T13:05:21;10.57;;;5.72;;
11877;SDS011;5998;42.676;23.268;2022-09-09T13:07:49;8.82;;;5.75;;
11877;SDS011;5998;42.676;23.268;2022-09-09T13:10:20;6.13;;;5.40;;
11877;SDS011;5998;42.676;23.268;2022-09-09T13:12:53;8.30;;;6.20;;
11877;SDS011;5998;42.676;23.268;2022-09-09T13:15:21;12.98;;;6.18;;
11877;SDS011;5998;42.676;23.268;2022-09-09T13:17:53;11.43;;;5.78;;
11877;SDS011;5998;42.676;23.268;2022-09-09T13:20:22;9.52;;;5.20;;
11877;SDS011;5998;42.676;23.268;2022-09-09T13:22:50;7.28;;;5.47;;
11877;SDS011;5998;42.676;23.268;2022-09-09T13:25:20;9.45;;;6.05;;
11877;SDS011;5998;42.676;23.268;2022-09-09T13:27:58;10.68;;;6.07;;
11877;SDS011;5998;42.676;23.268;2022-09-09T13:30:28;10.57;;;5.63;;
11877;SDS011;5998;42.676;23.268;2022-09-09T13:33:00;6.85;;;5.40;;
11877;SDS011;5998;42.676;23.268;2022-09-09T13:35:28;9.13;;;6.93;;
11877;SDS011;5998;42.676;23.268;2022-09-09T13:37:55;11.80;;;8.25;;
11877;SDS011;5998;42.676;23.268;2022-09-09T13:40:23;11.15;;;7.68;;
11877;SDS011;5998;42.676;23.268;2022-09-09T13:42:51;11.93;;;7.13;;
11877;SDS011;5998;42.676;23.268;2022-09-09T13:45:23;11.98;;;7.47;;
11877;SDS011;5998;42.676;23.268;2022-09-09T13:47:52;10.25;;;7.53;;
11877;SDS011;5998;42.676;23.268;2022-09-09T13:50:21;11.93;;;6.68;;
11877;SDS011;5998;42.676;23.268;2022-09-09T13:52:49;12.65;;;7.03;;
11877;SDS011;5998;42.676;23.268;2022-09-09T13:55:18;12.23;;;7.45;;
11877;SDS011;5998;42.676;23.268;2022-09-09T13:57:52;11.90;;;7.30;;
11877;SDS011;5998;42.676;23.268;2022-09-09T14:00:20;14.98;;;8.13;;
11877;SDS011;5998;42.676;23.268;2022-09-09T14:02:49;12.10;;;6.60;;
11877;SDS011;5998;42.676;23.268;2022-09-09T14:05:16;16.75;;;7.80;;
11877;SDS011;5998;42.676;23.268;2022-09-09T14:07:43;12.95;;;7.10;;
11877;SDS011;5998;42.676;23.268;2022-09-09T14:10:11;11.35;;;6.95;;
11877;SDS011;5998;42.676;23.268;2022-09-09T14:12:38;12.77;;;6.68;;
11877;SDS011;5998;42.676;23.268;2022-09-09T14:15:05;7.70;;;6.78;;
11877;SDS011;5998;42.676;23.268;2022-09-09T14:17:33;13.38;;;6.88;;
11877;SDS011;5998;42.676;23.268;2022-09-09T14:20:02;14.52;;;7.05;;
11877;SDS011;5998;42.676;23.268;2022-09-09T14:22:32;9.27;;;6.85;;
11877;SDS011;5998;42.676;23.268;2022-09-09T14:25:00;13.68;;;6.93;;
11877;SDS011;5998;42.676;23.268;2022-09-09T14:27:27;12.15;;;7.30;;
11877;SDS011;5998;42.676;23.268;2022-09-09T14:29:55;15.23;;;6.68;;
11877;SDS011;5998;42.676;23.268;2022-09-09T14:32:22;15.52;;;7.25;;
11877;SDS011;5998;42.676;23.268;2022-09-09T14:34:49;13.73;;;7.25;;
11877;SDS011;5998;42.676;23.268;2022-09-09T14:37:17;14.20;;;7.15;;
11877;SDS011;5998;42.676;23.268;2022-09-09T14:39:45;13.93;;;7.68;;
11877;SDS011;5998;42.676;23.268;2022-09-09T14:42:12;12.40;;;8.07;;
11877;SDS011;5998;42.676;23.268;2022-09-09T14:44:39;14.10;;;7.18;;
11877;SDS011;5998;42.676;23.268;2022-09-09T14:47:07;8.15;;;7.20;;
11877;SDS011;5998;42.676;23.268;2022-09-09T14:49:34;11.48;;;6.90;;
11877;SDS011;5998;42.676;23.268;2022-09-09T14:52:01;10.38;;;7.78;;
11877;SDS011;5998;42.676;23.268;2022-09-09T14:54:29;12.60;;;8.00;;
11877;SDS011;5998;42.676;23.268;2022-09-09T14:56:57;8.57;;;7.13;;
11877;SDS011;5998;42.676;23.268;2022-09-09T14:59:24;11.07;;;7.47;;
11877;SDS011;5998;42.676;23.268;2022-09-09T15:01:51;15.63;;;7.93;;
11877;SDS011;5998;42.676;23.268;2022-09-09T15:04:19;14.20;;;7.90;;